sensor_id;sensor_type;location;lat;lon;timestamp;temperature;humidity
15355;DHT22;7777;52.254;9.618;2023-04-03T00:00:42;3.20;99.90
15355;DHT22;7777;52.254;9.618;2023-04-03T00:03:08;3.20;99.90
15355;DHT22;7777;52.254;9.618;2023-04-03T00:05:34;3.10;99.90
15355;DHT22;7777;52.254;9.618;2023-04-03T00:07:59;3.10;99.90
15355;DHT22;7777;52.254;9.618;2023-04-03T00:10:27;3.00;99.90
15355;DHT22;7777;52.254;9.618;2023-04-03T00:12:53;3.00;99.90
15355;DHT22;7777;52.254;9.618;2023-04-03T00:15:19;3.00;99.90
15355;DHT22;7777;52.254;9.618;2023-04-03T00:17:45;2.90;99.90
15355;DHT22;7777;52.254;9.618;2023-04-03T00:20:11;2.90;99.90
15355;DHT22;7777;52.254;9.618;2023-04-03T00:22:36;2.80;99.90
15355;DHT22;7777;52.254;9.618;2023-04-03T00:25:03;2.80;99.90
15355;DHT22;7777;52.254;9.618;2023-04-03T00:27:29;2.70;99.90
15355;DHT22;7777;52.254;9.618;2023-04-03T00:29:55;2.70;99.90
15355;DHT22;7777;52.254;9.618;2023-04-03T00:32:20;2.70;99.90
15355;DHT22;7777;52.254;9.618;2023-04-03T00:34:46;2.60;99.90
15355;DHT22;7777;52.254;9.618;2023-04-03T00:37:11;2.60;99.90
15355;DHT22;7777;52.254;9.618;2023-04-03T00:39:37;2.50;99.90
15355;DHT22;7777;52.254;9.618;2023-04-03T00:42:03;2.50;99.90
15355;DHT22;7777;52.254;9.618;2023-04-03T00:47:02;2.40;99.90
15355;DHT22;7777;52.254;9.618;2023-04-03T00:49:29;2.40;99.90
15355;DHT22;7777;52.254;9.618;2023-04-03T00:51:57;2.30;99.90
15355;DHT22;7777;52.254;9.618;2023-04-03T00:54:23;2.30;99.90
15355;DHT22;7777;52.254;9.618;2023-04-03T00:56:51;2.20;99.90
15355;DHT22;7777;52.254;9.618;2023-04-03T00:59:27;2.20;99.90
15355;DHT22;7777;52.254;9.618;2023-04-03T01:01:56;2.20;99.90
15355;DHT22;7777;52.254;9.618;2023-04-03T01:07:04;2.10;99.90
15355;DHT22;7777;52.254;9.618;2023-04-03T01:09:41;2.00;99.90
15355;DHT22;7777;52.254;9.618;2023-04-03T01:15:00;1.90;99.90
15355;DHT22;7777;52.254;9.618;2023-04-03T01:17:45;1.90;99.90
15355;DHT22;7777;52.254;9.618;2023-04-03T01:26:31;1.80;99.90
15355;DHT22;7777;52.254;9.618;2023-04-03T01:28:59;1.80;99.90
15355;DHT22;7777;52.254;9.618;2023-04-03T01:31:31;1.70;99.90
15355;DHT22;7777;52.254;9.618;2023-04-03T01:34:10;1.60;99.90
15355;DHT22;7777;52.254;9.618;2023-04-03T01:36:36;1.60;99.90
15355;DHT22;7777;52.254;9.618;2023-04-03T01:39:02;1.50;99.90
15355;DHT22;7777;52.254;9.618;2023-04-03T01:41:28;1.50;99.90
15355;DHT22;7777;52.254;9.618;2023-04-03T01:43:54;1.50;99.90
15355;DHT22;7777;52.254;9.618;2023-04-03T01:46:20;1.40;99.90
15355;DHT22;7777;52.254;9.618;2023-04-03T01:48:46;1.40;99.90
15355;DHT22;7777;52.254;9.618;2023-04-03T01:51:12;1.40;99.90
15355;DHT22;7777;52.254;9.618;2023-04-03T01:53:38;1.30;99.90
15355;DHT22;7777;52.254;9.618;2023-04-03T01:56:04;1.30;99.90
15355;DHT22;7777;52.254;9.618;2023-04-03T01:58:30;1.30;99.90
15355;DHT22;7777;52.254;9.618;2023-04-03T02:00:56;1.30;99.90
15355;DHT22;7777;52.254;9.618;2023-04-03T02:03:22;1.20;99.90
15355;DHT22;7777;52.254;9.618;2023-04-03T02:05:47;1.20;99.90
15355;DHT22;7777;52.254;9.618;2023-04-03T02:08:13;1.20;99.90
15355;DHT22;7777;52.254;9.618;2023-04-03T02:10:39;1.20;99.90
15355;DHT22;7777;52.254;9.618;2023-04-03T02:13:05;1.10;99.90
15355;DHT22;7777;52.254;9.618;2023-04-03T02:15:31;1.10;99.90
15355;DHT22;7777;52.254;9.618;2023-04-03T02:17:56;1.10;99.90
15355;DHT22;7777;52.254;9.618;2023-04-03T02:20:22;1.00;99.90
15355;DHT22;7777;52.254;9.618;2023-04-03T02:22:48;1.10;99.90
15355;DHT22;7777;52.254;9.618;2023-04-03T02:25:14;1.00;99.90
15355;DHT22;7777;52.254;9.618;2023-04-03T02:27:40;1.00;99.90
15355;DHT22;7777;52.254;9.618;2023-04-03T02:30:06;0.90;99.90
15355;DHT22;7777;52.254;9.618;2023-04-03T02:32:32;0.90;99.90
15355;DHT22;7777;52.254;9.618;2023-04-03T02:34:58;0.90;99.90
15355;DHT22;7777;52.254;9.618;2023-04-03T02:37:24;0.90;99.90
15355;DHT22;7777;52.254;9.618;2023-04-03T02:39:49;0.90;99.90
15355;DHT22;7777;52.254;9.618;2023-04-03T02:42:15;0.90;99.90
15355;DHT22;7777;52.254;9.618;2023-04-03T02:44:41;0.80;99.90
15355;DHT22;7777;52.254;9.618;2023-04-03T02:47:06;0.80;99.90
15355;DHT22;7777;52.254;9.618;2023-04-03T02:49:32;0.80;99.90
15355;DHT22;7777;52.254;9.618;2023-04-03T02:51:58;0.80;99.90
15355;DHT22;7777;52.254;9.618;2023-04-03T02:54:24;0.70;99.90
15355;DHT22;7777;52.254;9.618;2023-04-03T02:56:53;0.70;99.90
15355;DHT22;7777;52.254;9.618;2023-04-03T02:59:18;0.70;99.90
15355;DHT22;7777;52.254;9.618;2023-04-03T03:01:45;0.60;99.90
15355;DHT22;7777;52.254;9.618;2023-04-03T03:04:11;0.60;99.90
15355;DHT22;7777;52.254;9.618;2023-04-03T03:06:36;0.60;99.90
15355;DHT22;7777;52.254;9.618;2023-04-03T03:09:02;0.60;99.90
15355;DHT22;7777;52.254;9.618;2023-04-03T03:11:29;0.60;99.90
15355;DHT22;7777;52.254;9.618;2023-04-03T03:13:55;0.60;99.90
15355;DHT22;7777;52.254;9.618;2023-04-03T03:16:21;0.60;99.90
15355;DHT22;7777;52.254;9.618;2023-04-03T03:18:47;0.50;99.90
15355;DHT22;7777;52.254;9.618;2023-04-03T03:21:12;0.50;99.90
15355;DHT22;7777;52.254;9.618;2023-04-03T03:23:38;0.60;99.90
15355;DHT22;7777;52.254;9.618;2023-04-03T03:26:06;0.50;99.90
15355;DHT22;7777;52.254;9.618;2023-04-03T03:28:33;0.50;99.90
15355;DHT22;7777;52.254;9.618;2023-04-03T03:31:00;0.40;99.90
15355;DHT22;7777;52.254;9.618;2023-04-03T03:33:26;0.40;99.90
15355;DHT22;7777;52.254;9.618;2023-04-03T03:35:53;0.30;99.90
15355;DHT22;7777;52.254;9.618;2023-04-03T03:38:19;0.40;99.90
15355;DHT22;7777;52.254;9.618;2023-04-03T03:40:47;0.30;99.90
15355;DHT22;7777;52.254;9.618;2023-04-03T03:43:14;0.30;99.90
15355;DHT22;7777;52.254;9.618;2023-04-03T03:45:40;0.20;99.90
15355;DHT22;7777;52.254;9.618;2023-04-03T03:48:06;0.20;99.90
15355;DHT22;7777;52.254;9.618;2023-04-03T03:50:32;0.20;99.90
15355;DHT22;7777;52.254;9.618;2023-04-03T03:52:57;0.20;99.90
15355;DHT22;7777;52.254;9.618;2023-04-03T03:55:23;0.20;99.90
15355;DHT22;7777;52.254;9.618;2023-04-03T03:57:49;0.20;99.90
15355;DHT22;7777;52.254;9.618;2023-04-03T04:00:15;0.20;99.90
15355;DHT22;7777;52.254;9.618;2023-04-03T04:02:42;0.10;99.90
15355;DHT22;7777;52.254;9.618;2023-04-03T04:05:08;0.10;99.90
15355;DHT22;7777;52.254;9.618;2023-04-03T04:07:33;0.10;99.90
15355;DHT22;7777;52.254;9.618;2023-04-03T04:10:02;0.00;99.90
15355;DHT22;7777;52.254;9.618;2023-04-03T04:12:27;0.00;99.90
15355;DHT22;7777;52.254;9.618;2023-04-03T04:14:53;0.00;99.90
15355;DHT22;7777;52.254;9.618;2023-04-03T04:17:19;-0.10;99.90
15355;DHT22;7777;52.254;9.618;2023-04-03T04:19:45;-0.10;99.90
15355;DHT22;7777;52.254;9.618;2023-04-03T04:22:10;-0.10;99.90
15355;DHT22;7777;52.254;9.618;2023-04-03T04:24:36;-0.20;99.90
15355;DHT22;7777;52.254;9.618;2023-04-03T04:27:02;-0.20;99.90
15355;DHT22;7777;52.254;9.618;2023-04-03T04:29:28;-0.20;99.90
15355;DHT22;7777;52.254;9.618;2023-04-03T04:31:53;-0.20;99.90
15355;DHT22;7777;52.254;9.618;2023-04-03T04:34:19;-0.20;99.90
15355;DHT22;7777;52.254;9.618;2023-04-03T04:36:45;-0.20;99.90
15355;DHT22;7777;52.254;9.618;2023-04-03T04:39:11;-0.20;99.90
15355;DHT22;7777;52.254;9.618;2023-04-03T04:41:36;-0.20;99.90
15355;DHT22;7777;52.254;9.618;2023-04-03T04:44:02;-0.30;99.90
15355;DHT22;7777;52.254;9.618;2023-04-03T04:46:28;-0.30;99.90
15355;DHT22;7777;52.254;9.618;2023-04-03T04:48:54;-0.30;99.90
15355;DHT22;7777;52.254;9.618;2023-04-03T04:51:19;-0.30;99.90
15355;DHT22;7777;52.254;9.618;2023-04-03T04:53:45;-0.20;99.90
15355;DHT22;7777;52.254;9.618;2023-04-03T04:56:11;-0.30;99.90
15355;DHT22;7777;52.254;9.618;2023-04-03T04:58:39;-0.30;99.90
15355;DHT22;7777;52.254;9.618;2023-04-03T05:01:07;-0.30;99.90
15355;DHT22;7777;52.254;9.618;2023-04-03T05:03:34;-0.30;99.90
15355;DHT22;7777;52.254;9.618;2023-04-03T05:06:00;-0.30;99.90
15355;DHT22;7777;52.254;9.618;2023-04-03T05:08:26;-0.40;99.90
15355;DHT22;7777;52.254;9.618;2023-04-03T05:10:52;-0.30;99.90
15355;DHT22;7777;52.254;9.618;2023-04-03T05:13:19;-0.40;99.90
15355;DHT22;7777;52.254;9.618;2023-04-03T05:15:46;-0.40;99.90
15355;DHT22;7777;52.254;9.618;2023-04-03T05:18:12;-0.40;99.90
15355;DHT22;7777;52.254;9.618;2023-04-03T05:20:38;-0.40;99.90
15355;DHT22;7777;52.254;9.618;2023-04-03T05:23:04;-0.40;99.90
15355;DHT22;7777;52.254;9.618;2023-04-03T05:25:29;-0.40;99.90
15355;DHT22;7777;52.254;9.618;2023-04-03T05:27:55;-0.40;99.90
15355;DHT22;7777;52.254;9.618;2023-04-03T05:30:21;-0.40;99.90
15355;DHT22;7777;52.254;9.618;2023-04-03T05:32:47;-0.40;99.90
15355;DHT22;7777;52.254;9.618;2023-04-03T05:35:13;-0.40;99.90
15355;DHT22;7777;52.254;9.618;2023-04-03T05:37:40;-0.40;99.90
15355;DHT22;7777;52.254;9.618;2023-04-03T05:40:06;-0.40;99.90
15355;DHT22;7777;52.254;9.618;2023-04-03T05:42:33;-0.40;99.90
15355;DHT22;7777;52.254;9.618;2023-04-03T05:44:59;-0.40;99.90
15355;DHT22;7777;52.254;9.618;2023-04-03T05:47:25;-0.30;99.90
15355;DHT22;7777;52.254;9.618;2023-04-03T05:49:50;-0.30;99.90
15355;DHT22;7777;52.254;9.618;2023-04-03T05:52:30;-0.30;99.90
15355;DHT22;7777;52.254;9.618;2023-04-03T05:54:58;-0.30;99.90
15355;DHT22;7777;52.254;9.618;2023-04-03T05:57:24;-0.30;99.90
15355;DHT22;7777;52.254;9.618;2023-04-03T05:59:50;-0.30;99.90
15355;DHT22;7777;52.254;9.618;2023-04-03T06:02:20;-0.20;99.90
15355;DHT22;7777;52.254;9.618;2023-04-03T06:04:46;-0.20;99.90
15355;DHT22;7777;52.254;9.618;2023-04-03T06:07:18;-0.20;99.90
15355;DHT22;7777;52.254;9.618;2023-04-03T06:09:46;-0.10;99.90
15355;DHT22;7777;52.254;9.618;2023-04-03T06:12:12;-0.10;99.90
15355;DHT22;7777;52.254;9.618;2023-04-03T06:14:38;0.00;99.90
15355;DHT22;7777;52.254;9.618;2023-04-03T06:17:04;0.10;99.90
15355;DHT22;7777;52.254;9.618;2023-04-03T06:19:31;0.10;99.90
15355;DHT22;7777;52.254;9.618;2023-04-03T06:21:57;0.10;99.90
15355;DHT22;7777;52.254;9.618;2023-04-03T06:24:22;0.10;99.90
15355;DHT22;7777;52.254;9.618;2023-04-03T06:26:49;0.20;99.90
15355;DHT22;7777;52.254;9.618;2023-04-03T06:29:16;0.30;99.90
15355;DHT22;7777;52.254;9.618;2023-04-03T06:31:43;0.40;99.90
15355;DHT22;7777;52.254;9.618;2023-04-03T06:34:09;0.40;99.90
15355;DHT22;7777;52.254;9.618;2023-04-03T06:36:36;0.40;99.90
15355;DHT22;7777;52.254;9.618;2023-04-03T06:39:02;0.50;99.90
15355;DHT22;7777;52.254;9.618;2023-04-03T06:41:28;0.60;99.90
15355;DHT22;7777;52.254;9.618;2023-04-03T06:43:58;0.70;99.90
15355;DHT22;7777;52.254;9.618;2023-04-03T06:46:25;0.70;99.90
15355;DHT22;7777;52.254;9.618;2023-04-03T06:48:52;0.80;99.90
15355;DHT22;7777;52.254;9.618;2023-04-03T06:51:20;0.90;99.90
15355;DHT22;7777;52.254;9.618;2023-04-03T06:53:49;0.90;99.90
15355;DHT22;7777;52.254;9.618;2023-04-03T06:56:16;1.00;99.90
15355;DHT22;7777;52.254;9.618;2023-04-03T06:58:43;1.00;99.90
15355;DHT22;7777;52.254;9.618;2023-04-03T07:01:10;1.20;99.90
15355;DHT22;7777;52.254;9.618;2023-04-03T07:03:38;1.20;99.90
15355;DHT22;7777;52.254;9.618;2023-04-03T07:06:05;1.30;99.90
15355;DHT22;7777;52.254;9.618;2023-04-03T07:08:32;1.30;99.90
15355;DHT22;7777;52.254;9.618;2023-04-03T07:10:59;1.40;99.90
15355;DHT22;7777;52.254;9.618;2023-04-03T07:13:24;1.40;99.90
15355;DHT22;7777;52.254;9.618;2023-04-03T07:15:50;1.50;99.90
15355;DHT22;7777;52.254;9.618;2023-04-03T07:18:16;1.60;99.90
15355;DHT22;7777;52.254;9.618;2023-04-03T07:20:42;1.70;99.90
15355;DHT22;7777;52.254;9.618;2023-04-03T07:23:08;1.70;99.90
15355;DHT22;7777;52.254;9.618;2023-04-03T07:25:34;1.80;99.90
15355;DHT22;7777;52.254;9.618;2023-04-03T07:28:00;1.90;99.90
15355;DHT22;7777;52.254;9.618;2023-04-03T07:30:26;2.00;99.90
15355;DHT22;7777;52.254;9.618;2023-04-03T07:32:51;2.00;99.90
15355;DHT22;7777;52.254;9.618;2023-04-03T07:35:17;2.10;99.90
15355;DHT22;7777;52.254;9.618;2023-04-03T07:37:43;2.20;99.90
15355;DHT22;7777;52.254;9.618;2023-04-03T07:40:11;2.20;99.90
15355;DHT22;7777;52.254;9.618;2023-04-03T07:42:37;2.30;99.90
15355;DHT22;7777;52.254;9.618;2023-04-03T07:45:03;2.40;99.90
15355;DHT22;7777;52.254;9.618;2023-04-03T07:47:30;2.50;99.90
15355;DHT22;7777;52.254;9.618;2023-04-03T07:49:56;2.50;99.90
15355;DHT22;7777;52.254;9.618;2023-04-03T07:52:23;2.60;99.90
15355;DHT22;7777;52.254;9.618;2023-04-03T07:54:49;2.70;99.90
15355;DHT22;7777;52.254;9.618;2023-04-03T07:57:14;2.80;99.90
15355;DHT22;7777;52.254;9.618;2023-04-03T07:59:40;2.90;99.90
15355;DHT22;7777;52.254;9.618;2023-04-03T08:02:09;3.00;99.90
15355;DHT22;7777;52.254;9.618;2023-04-03T08:04:35;3.10;99.90
15355;DHT22;7777;52.254;9.618;2023-04-03T08:07:01;3.20;99.90
15355;DHT22;7777;52.254;9.618;2023-04-03T08:09:27;3.20;99.90
15355;DHT22;7777;52.254;9.618;2023-04-03T08:11:52;3.40;99.90
15355;DHT22;7777;52.254;9.618;2023-04-03T08:14:19;3.40;99.90
15355;DHT22;7777;52.254;9.618;2023-04-03T08:16:47;3.50;99.90
15355;DHT22;7777;52.254;9.618;2023-04-03T08:19:14;3.60;99.90
15355;DHT22;7777;52.254;9.618;2023-04-03T08:21:42;3.70;99.90
15355;DHT22;7777;52.254;9.618;2023-04-03T08:24:08;3.80;99.90
15355;DHT22;7777;52.254;9.618;2023-04-03T08:26:35;3.90;99.90
15355;DHT22;7777;52.254;9.618;2023-04-03T08:29:01;3.90;99.90
15355;DHT22;7777;52.254;9.618;2023-04-03T08:31:27;4.00;99.90
15355;DHT22;7777;52.254;9.618;2023-04-03T08:33:53;4.00;99.90
15355;DHT22;7777;52.254;9.618;2023-04-03T08:36:21;4.00;99.90
15355;DHT22;7777;52.254;9.618;2023-04-03T08:38:49;4.10;99.90
15355;DHT22;7777;52.254;9.618;2023-04-03T08:41:33;4.20;99.90
15355;DHT22;7777;52.254;9.618;2023-04-03T08:50:16;4.40;99.90
15355;DHT22;7777;52.254;9.618;2023-04-03T08:52:55;4.50;99.90
15355;DHT22;7777;52.254;9.618;2023-04-03T08:55:28;4.60;99.90
15355;DHT22;7777;52.254;9.618;2023-04-03T08:58:05;4.70;99.90
15355;DHT22;7777;52.254;9.618;2023-04-03T09:03:30;4.80;99.90
15355;DHT22;7777;52.254;9.618;2023-04-03T09:06:10;4.80;99.90
15355;DHT22;7777;52.254;9.618;2023-04-03T09:09:15;4.80;99.90
15355;DHT22;7777;52.254;9.618;2023-04-03T09:12:27;4.90;99.90
15355;DHT22;7777;52.254;9.618;2023-04-03T09:15:25;5.00;99.90
15355;DHT22;7777;52.254;9.618;2023-04-03T09:18:15;5.10;99.90
15355;DHT22;7777;52.254;9.618;2023-04-03T09:23:50;5.20;99.90
15355;DHT22;7777;52.254;9.618;2023-04-03T09:26:29;5.30;99.90
15355;DHT22;7777;52.254;9.618;2023-04-03T09:29:01;5.30;99.90
15355;DHT22;7777;52.254;9.618;2023-04-03T09:31:36;5.50;99.90
15355;DHT22;7777;52.254;9.618;2023-04-03T09:34:17;5.60;99.90
15355;DHT22;7777;52.254;9.618;2023-04-03T09:36:50;5.70;99.90
15355;DHT22;7777;52.254;9.618;2023-04-03T09:39:19;5.80;99.90
15355;DHT22;7777;52.254;9.618;2023-04-03T09:42:01;5.90;99.90
15355;DHT22;7777;52.254;9.618;2023-04-03T09:44:38;6.00;99.90
15355;DHT22;7777;52.254;9.618;2023-04-03T09:47:26;6.20;99.90
15355;DHT22;7777;52.254;9.618;2023-04-03T09:52:40;6.50;99.90
15355;DHT22;7777;52.254;9.618;2023-04-03T09:55:20;6.60;99.90
15355;DHT22;7777;52.254;9.618;2023-04-03T09:57:55;6.70;99.90
15355;DHT22;7777;52.254;9.618;2023-04-03T10:00:25;6.80;99.90
15355;DHT22;7777;52.254;9.618;2023-04-03T10:02:55;6.80;99.90
15355;DHT22;7777;52.254;9.618;2023-04-03T10:05:28;6.80;99.60
15355;DHT22;7777;52.254;9.618;2023-04-03T10:08:09;6.90;99.90
15355;DHT22;7777;52.254;9.618;2023-04-03T10:10:39;7.00;99.70
15355;DHT22;7777;52.254;9.618;2023-04-03T10:13:15;7.00;98.30
15355;DHT22;7777;52.254;9.618;2023-04-03T10:16:03;7.00;98.50
15355;DHT22;7777;52.254;9.618;2023-04-03T10:21:53;7.00;98.00
15355;DHT22;7777;52.254;9.618;2023-04-03T10:24:28;7.00;99.10
15355;DHT22;7777;52.254;9.618;2023-04-03T10:33:35;7.00;98.70
15355;DHT22;7777;52.254;9.618;2023-04-03T10:36:26;7.00;98.60
15355;DHT22;7777;52.254;9.618;2023-04-03T10:47:54;6.90;98.80
15355;DHT22;7777;52.254;9.618;2023-04-03T10:53:35;6.80;98.30
15355;DHT22;7777;52.254;9.618;2023-04-03T10:56:05;6.80;98.50
15355;DHT22;7777;52.254;9.618;2023-04-03T10:58:45;6.80;98.50
15355;DHT22;7777;52.254;9.618;2023-04-03T11:01:22;6.70;98.00
15355;DHT22;7777;52.254;9.618;2023-04-03T11:03:57;6.70;99.00
15355;DHT22;7777;52.254;9.618;2023-04-03T11:06:27;6.80;98.30
15355;DHT22;7777;52.254;9.618;2023-04-03T11:09:23;7.00;98.20
15355;DHT22;7777;52.254;9.618;2023-04-03T11:11:56;7.10;98.60
15355;DHT22;7777;52.254;9.618;2023-04-03T11:14:30;7.20;96.30
15355;DHT22;7777;52.254;9.618;2023-04-03T11:17:29;7.30;96.50
15355;DHT22;7777;52.254;9.618;2023-04-03T11:20:10;7.30;95.30
15355;DHT22;7777;52.254;9.618;2023-04-03T11:22:42;7.30;97.60
15355;DHT22;7777;52.254;9.618;2023-04-03T11:28:00;7.50;98.40
15355;DHT22;7777;52.254;9.618;2023-04-03T11:36:44;7.50;97.30
15355;DHT22;7777;52.254;9.618;2023-04-03T11:39:25;7.50;97.40
15355;DHT22;7777;52.254;9.618;2023-04-03T11:41:53;7.50;97.80
15355;DHT22;7777;52.254;9.618;2023-04-03T11:44:36;7.50;97.10
15355;DHT22;7777;52.254;9.618;2023-04-03T11:47:09;7.40;96.80
15355;DHT22;7777;52.254;9.618;2023-04-03T11:58:03;7.30;95.90
15355;DHT22;7777;52.254;9.618;2023-04-03T12:05:51;7.50;96.90
15355;DHT22;7777;52.254;9.618;2023-04-03T12:08:50;7.60;97.50
15355;DHT22;7777;52.254;9.618;2023-04-03T12:11:32;7.80;97.40
15355;DHT22;7777;52.254;9.618;2023-04-03T12:14:14;8.00;97.90
15355;DHT22;7777;52.254;9.618;2023-04-03T12:16:42;8.20;95.50
15355;DHT22;7777;52.254;9.618;2023-04-03T12:24:28;8.20;94.50
15355;DHT22;7777;52.254;9.618;2023-04-03T12:30:04;8.10;93.40
15355;DHT22;7777;52.254;9.618;2023-04-03T12:35:42;8.10;94.00
15355;DHT22;7777;52.254;9.618;2023-04-03T12:38:44;8.10;94.00
15355;DHT22;7777;52.254;9.618;2023-04-03T12:46:53;8.20;95.20
15355;DHT22;7777;52.254;9.618;2023-04-03T12:49:48;8.30;96.10
15355;DHT22;7777;52.254;9.618;2023-04-03T12:53:05;8.40;95.60
15355;DHT22;7777;52.254;9.618;2023-04-03T12:55:19;8.50;95.60
15355;DHT22;7777;52.254;9.618;2023-04-03T12:57:46;8.50;93.60
15355;DHT22;7777;52.254;9.618;2023-04-03T13:02:59;8.50;94.20
15355;DHT22;7777;52.254;9.618;2023-04-03T13:05:26;8.50;94.40
15355;DHT22;7777;52.254;9.618;2023-04-03T13:07:58;8.50;92.30
15355;DHT22;7777;52.254;9.618;2023-04-03T13:10:27;8.40;94.60
15355;DHT22;7777;52.254;9.618;2023-04-03T13:12:55;8.40;94.60
15355;DHT22;7777;52.254;9.618;2023-04-03T13:15:30;8.30;94.40
15355;DHT22;7777;52.254;9.618;2023-04-03T13:18:31;8.30;95.30
15355;DHT22;7777;52.254;9.618;2023-04-03T13:21:21;8.40;95.70
15355;DHT22;7777;52.254;9.618;2023-04-03T13:23:51;8.30;93.50
15355;DHT22;7777;52.254;9.618;2023-04-03T13:26:20;8.30;94.10
15355;DHT22;7777;52.254;9.618;2023-04-03T13:28:48;8.30;95.50
15355;DHT22;7777;52.254;9.618;2023-04-03T13:31:27;8.30;94.70
15355;DHT22;7777;52.254;9.618;2023-04-03T13:34:13;8.20;94.80
15355;DHT22;7777;52.254;9.618;2023-04-03T13:36:46;8.20;95.40
15355;DHT22;7777;52.254;9.618;2023-04-03T13:39:29;8.20;94.10
15355;DHT22;7777;52.254;9.618;2023-04-03T13:42:03;8.30;94.70
15355;DHT22;7777;52.254;9.618;2023-04-03T13:44:42;8.40;94.50
15355;DHT22;7777;52.254;9.618;2023-04-03T13:49:39;8.50;94.80
15355;DHT22;7777;52.254;9.618;2023-04-03T13:52:22;8.50;93.00
15355;DHT22;7777;52.254;9.618;2023-04-03T13:55:02;8.50;93.10
15355;DHT22;7777;52.254;9.618;2023-04-03T14:00:49;8.60;94.80
15355;DHT22;7777;52.254;9.618;2023-04-03T14:03:31;8.80;92.30
15355;DHT22;7777;52.254;9.618;2023-04-03T14:06:08;8.80;92.40
15355;DHT22;7777;52.254;9.618;2023-04-03T14:08:36;8.90;92.70
15355;DHT22;7777;52.254;9.618;2023-04-03T14:11:02;9.00;93.40
15355;DHT22;7777;52.254;9.618;2023-04-03T14:13:30;9.10;91.40
15355;DHT22;7777;52.254;9.618;2023-04-03T14:15:56;9.20;90.90
15355;DHT22;7777;52.254;9.618;2023-04-03T14:18:22;9.20;90.70
15355;DHT22;7777;52.254;9.618;2023-04-03T14:20:48;9.20;90.60
15355;DHT22;7777;52.254;9.618;2023-04-03T14:23:14;9.20;92.30
15355;DHT22;7777;52.254;9.618;2023-04-03T14:25:41;9.30;91.80
15355;DHT22;7777;52.254;9.618;2023-04-03T14:28:17;9.40;92.80
15355;DHT22;7777;52.254;9.618;2023-04-03T14:30:47;9.50;93.90
15355;DHT22;7777;52.254;9.618;2023-04-03T14:33:19;9.50;93.50
15355;DHT22;7777;52.254;9.618;2023-04-03T14:35:47;9.60;93.90
15355;DHT22;7777;52.254;9.618;2023-04-03T14:38:28;9.60;94.80
15355;DHT22;7777;52.254;9.618;2023-04-03T14:40:56;9.70;93.10
15355;DHT22;7777;52.254;9.618;2023-04-03T14:43:22;9.70;92.20
15355;DHT22;7777;52.254;9.618;2023-04-03T14:45:49;9.50;90.40
15355;DHT22;7777;52.254;9.618;2023-04-03T14:48:19;9.50;91.00
15355;DHT22;7777;52.254;9.618;2023-04-03T14:50:48;9.50;92.60
15355;DHT22;7777;52.254;9.618;2023-04-03T14:53:14;9.50;93.90
15355;DHT22;7777;52.254;9.618;2023-04-03T14:55:43;9.50;93.10
15355;DHT22;7777;52.254;9.618;2023-04-03T14:58:13;9.40;91.80
15355;DHT22;7777;52.254;9.618;2023-04-03T15:00:43;9.30;91.10
15355;DHT22;7777;52.254;9.618;2023-04-03T15:03:21;9.20;90.40
15355;DHT22;7777;52.254;9.618;2023-04-03T15:05:48;9.00;90.90
15355;DHT22;7777;52.254;9.618;2023-04-03T15:08:23;9.00;91.90
15355;DHT22;7777;52.254;9.618;2023-04-03T15:10:51;9.00;91.90
15355;DHT22;7777;52.254;9.618;2023-04-03T15:13:22;9.00;90.90
15355;DHT22;7777;52.254;9.618;2023-04-03T15:15:49;9.00;92.90
15355;DHT22;7777;52.254;9.618;2023-04-03T15:18:18;9.00;92.70
15355;DHT22;7777;52.254;9.618;2023-04-03T15:20:47;8.90;92.60
15355;DHT22;7777;52.254;9.618;2023-04-03T15:23:16;9.00;91.80
15355;DHT22;7777;52.254;9.618;2023-04-03T15:25:43;8.90;91.60
15355;DHT22;7777;52.254;9.618;2023-04-03T15:28:31;8.80;91.30
15355;DHT22;7777;52.254;9.618;2023-04-03T15:30:59;8.70;90.80
15355;DHT22;7777;52.254;9.618;2023-04-03T15:33:25;8.60;91.90
15355;DHT22;7777;52.254;9.618;2023-04-03T15:35:51;8.60;92.50
15355;DHT22;7777;52.254;9.618;2023-04-03T15:38:17;8.60;92.20
15355;DHT22;7777;52.254;9.618;2023-04-03T15:40:50;8.50;91.70
15355;DHT22;7777;52.254;9.618;2023-04-03T15:43:16;8.50;92.10
15355;DHT22;7777;52.254;9.618;2023-04-03T15:45:43;8.40;92.30
15355;DHT22;7777;52.254;9.618;2023-04-03T15:48:10;8.50;92.90
15355;DHT22;7777;52.254;9.618;2023-04-03T15:50:37;8.40;93.40
15355;DHT22;7777;52.254;9.618;2023-04-03T15:53:03;8.40;91.70
15355;DHT22;7777;52.254;9.618;2023-04-03T15:55:31;8.40;92.10
15355;DHT22;7777;52.254;9.618;2023-04-03T15:58:00;8.40;93.20
15355;DHT22;7777;52.254;9.618;2023-04-03T16:00:26;8.40;92.70
15355;DHT22;7777;52.254;9.618;2023-04-03T16:03:16;8.30;91.40
15355;DHT22;7777;52.254;9.618;2023-04-03T16:05:41;8.30;92.10
15355;DHT22;7777;52.254;9.618;2023-04-03T16:08:07;8.30;92.90
15355;DHT22;7777;52.254;9.618;2023-04-03T16:10:35;8.30;93.30
15355;DHT22;7777;52.254;9.618;2023-04-03T16:13:01;8.30;92.10
15355;DHT22;7777;52.254;9.618;2023-04-03T16:15:27;8.20;90.30
15355;DHT22;7777;52.254;9.618;2023-04-03T16:17:54;8.10;91.80
15355;DHT22;7777;52.254;9.618;2023-04-03T16:20:20;8.10;92.30
15355;DHT22;7777;52.254;9.618;2023-04-03T16:22:47;8.10;92.40
15355;DHT22;7777;52.254;9.618;2023-04-03T16:25:14;8.00;90.80
15355;DHT22;7777;52.254;9.618;2023-04-03T16:27:40;7.90;91.60
15355;DHT22;7777;52.254;9.618;2023-04-03T16:30:06;7.90;92.60
15355;DHT22;7777;52.254;9.618;2023-04-03T16:32:38;7.90;92.90
15355;DHT22;7777;52.254;9.618;2023-04-03T16:35:07;7.90;92.60
15355;DHT22;7777;52.254;9.618;2023-04-03T16:37:36;7.80;93.20
15355;DHT22;7777;52.254;9.618;2023-04-03T16:40:03;7.80;92.60
15355;DHT22;7777;52.254;9.618;2023-04-03T16:42:30;7.80;91.80
15355;DHT22;7777;52.254;9.618;2023-04-03T16:44:56;7.70;92.70
15355;DHT22;7777;52.254;9.618;2023-04-03T16:47:22;7.70;92.70
15355;DHT22;7777;52.254;9.618;2023-04-03T16:49:47;7.70;91.60
15355;DHT22;7777;52.254;9.618;2023-04-03T16:52:13;7.60;91.60
15355;DHT22;7777;52.254;9.618;2023-04-03T16:54:39;7.60;91.60
15355;DHT22;7777;52.254;9.618;2023-04-03T16:57:05;7.50;90.80
15355;DHT22;7777;52.254;9.618;2023-04-03T16:59:30;7.40;91.80
15355;DHT22;7777;52.254;9.618;2023-04-03T17:01:56;7.40;91.90
15355;DHT22;7777;52.254;9.618;2023-04-03T17:04:22;7.40;91.70
15355;DHT22;7777;52.254;9.618;2023-04-03T17:06:47;7.30;91.70
15355;DHT22;7777;52.254;9.618;2023-04-03T17:09:13;7.30;91.40
15355;DHT22;7777;52.254;9.618;2023-04-03T17:11:39;7.30;92.00
15355;DHT22;7777;52.254;9.618;2023-04-03T17:14:05;7.30;92.10
15355;DHT22;7777;52.254;9.618;2023-04-03T17:16:33;7.20;92.50
15355;DHT22;7777;52.254;9.618;2023-04-03T17:19:00;7.30;92.80
15355;DHT22;7777;52.254;9.618;2023-04-03T17:21:27;7.30;92.70
15355;DHT22;7777;52.254;9.618;2023-04-03T17:24:00;7.20;92.40
15355;DHT22;7777;52.254;9.618;2023-04-03T17:26:28;7.20;93.00
15355;DHT22;7777;52.254;9.618;2023-04-03T17:28:53;7.20;93.50
15355;DHT22;7777;52.254;9.618;2023-04-03T17:31:19;7.20;92.30
15355;DHT22;7777;52.254;9.618;2023-04-03T17:33:45;7.20;92.50
15355;DHT22;7777;52.254;9.618;2023-04-03T17:36:11;7.10;92.70
15355;DHT22;7777;52.254;9.618;2023-04-03T17:38:36;7.10;92.70
15355;DHT22;7777;52.254;9.618;2023-04-03T17:41:07;7.00;92.00
15355;DHT22;7777;52.254;9.618;2023-04-03T17:43:34;7.00;92.80
15355;DHT22;7777;52.254;9.618;2023-04-03T17:46:02;6.90;91.90
15355;DHT22;7777;52.254;9.618;2023-04-03T17:48:34;6.90;92.50
15355;DHT22;7777;52.254;9.618;2023-04-03T17:51:14;6.90;92.60
15355;DHT22;7777;52.254;9.618;2023-04-03T17:53:42;6.80;92.70